Airfield :
LOGIN :

Register | Disclaimer

   EN    FR    IT 

 










Legend :    VFR   Marginal VFR   IFR   Intensive IFR   Very Intensive IFR
Visi :
Ceiling :
>= 8 km
>= 3000ft
5 to 8 km
1000 to 3000 ft
1500m to 5 km
500 to 1000 ft
800 to 1500m
200 to 500 ft
< 800m
< 200 ft
Symbols :   Thunderstorms  Fog  Heavy snow  Heavy precipitations  Wind > 20 kt
SIGMETs :     Misc.  Thunderstorms  Icing  Turbulence  Mountain Waves  Volcanic Ashes






- Airport Elevation : 289 ft


LFYR - Romorantin Pruniers

CURRENT METAR :
  • 231830Z AUTO VRB02KT 9999 SCT032 18/12 Q1017

EXPIRED METARs :
  • 231800Z AUTO 20005KT CAVOK 18/11 Q1017
  • 231730Z AUTO VRB03KT CAVOK 18/10 Q1017
  • 231700Z AUTO VRB03KT CAVOK 19/10 Q1017
  • 231630Z AUTO 24003KT 210V290 CAVOK 17/10 Q1017
  • 231600Z AUTO 24006KT CAVOK 17/10 Q1017
  • 231530Z AUTO 26005KT 200V310 9999 //////TCU 18/11 Q1017
  • 231500Z AUTO 21006KT 150V290 9999 //////TCU 17/12 Q1017 TEMPO VRB15G25KT 2000 TSRA BKN025CB
  • 231430Z AUTO 20004KT 170V230 9999 FEW012/// BKN180/// ///CB 16/12 Q1017 TEMPO VRB15G25KT 2000 TSRA
  • 231400Z AUTO 00000KT 9999 FEW032/// SCT074/// BKN100/// ///CB 16/12 Q1017 TEMPO VRB15G25KT 2000 TSRA

TAF TAF LFYR
Valid from the 23 at 15:00 until the 24 at 15:00 UTC


231400Z 2315/2415 VRB02KT 9999 BKN016 BKN025
TEMPO 2315/2402 4000 SHRA BKN020CB
PROB40
TEMPO 2315/2322 VRB15G25KT 2000 TSRA BKN025CB
TEMPO 2404/2409 3000 SHRA BKN007 SCT040CB



MET'MAP, your aeronautical weather chart ! - Copyright ORBIFLY December 2007 - Disclaimer

ORBIFLY MET'MAP TEAM :

Programming & Development : Alexandra Zaïnal
Original concept : Baudouin d'Aumeries
Technical & hardware support : Manuel Goepfert
Assistance : Marc-Olivier Méhu




SOURCES & CREDITS :

   NOAA